Time;durP1;ratioP1;P1;durP2;ratioP2;P2;SDS_P1;SDS_P2;PMS_P1;PMS_P2;Temp;Humidity;BMP_temperature;BMP_pressure;BME280_temperature;BME280_humidity;BME280_pressure;Samples;Min_cycle;Max_cycle;Signal;HPM_P1;HPM_P2
2021/12/24 00:00:00;;;;;;;185.27;27.25;;;6.90;99.90;;;;;;5126827;27;20041;-80
2021/12/24 00:02:26;;;;;;;158.82;25.92;;;6.90;99.90;;;;;;5110217;27;20043;-80
2021/12/24 00:04:51;;;;;;;163.43;26.27;;;6.90;99.90;;;;;;5112140;27;20126;-80
2021/12/24 00:07:17;;;;;;;174.00;25.95;;;6.90;99.90;;;;;;5097041;27;20047;-80
2021/12/24 00:09:43;;;;;;;202.90;28.00;;;6.90;99.90;;;;;;5110298;27;20106;-80
2021/12/24 00:12:17;;;;;;;187.40;26.70;;;7.20;99.90;;;;;;5096273;27;20464;-80
2021/12/24 00:14:48;;;;;;;175.50;26.75;;;6.90;99.90;;;;;;5130352;27;20491;-80
2021/12/24 00:17:16;;;;;;;150.48;25.95;;;7.60;99.90;;;;;;5127429;27;20054;-80
2021/12/24 00:20:00;;;;;;;135.07;26.92;;;7.30;99.90;;;;;;5126236;27;20046;-80
2021/12/24 00:36:07;;;;;;;99.10;25.50;;;7.10;99.90;;;;;;5113011;27;20068;-79
2021/12/24 00:38:33;;;;;;;83.45;24.55;;;7.10;99.90;;;;;;5097492;27;20030;-79
2021/12/24 00:40:59;;;;;;;92.25;24.92;;;7.10;99.90;;;;;;5111705;27;20046;-79
2021/12/24 00:43:25;;;;;;;83.43;24.10;;;7.10;99.90;;;;;;5109620;27;20038;-78
2021/12/24 00:45:51;;;;;;;81.15;24.92;;;7.10;99.90;;;;;;5127168;27;20062;-79
2021/12/24 00:48:19;;;;;;;83.30;25.35;;;7.10;99.90;;;;;;5111460;27;20102;-78
2021/12/24 00:56:11;;;;;;;83.38;24.33;;;7.10;99.90;;;;;;5111220;27;20121;-79
2021/12/24 00:58:37;;;;;;;86.20;25.40;;;7.30;99.90;;;;;;5113934;27;20043;-79
2021/12/24 01:01:05;;;;;;;88.78;26.13;;;7.10;99.90;;;;;;5110365;27;20049;-79
2021/12/24 01:03:30;;;;;;;80.57;23.85;;;7.70;99.90;;;;;;5109967;27;20271;-79
2021/12/24 01:05:56;;;;;;;82.32;24.23;;;7.50;99.90;;;;;;5094703;27;20150;-79
2021/12/24 01:08:23;;;;;;;91.25;23.90;;;7.00;99.90;;;;;;5109114;27;20523;-79
2021/12/24 01:10:58;;;;;;;93.22;23.65;;;7.00;99.90;;;;;;5128274;27;20038;-79
2021/12/24 01:13:25;;;;;;;83.22;23.42;;;7.00;99.90;;;;;;5112477;27;20440;-79
2021/12/24 01:16:32;;;;;;;87.65;26.20;;;7.00;99.90;;;;;;5108387;27;20043;-79
2021/12/24 01:18:58;;;;;;;109.43;25.92;;;7.00;99.90;;;;;;5125701;27;20081;-80
2021/12/24 01:23:57;;;;;;;93.53;25.40;;;7.00;99.90;;;;;;5125127;27;20584;-80
2021/12/24 01:26:34;;;;;;;98.57;25.98;;;7.00;99.90;;;;;;5111736;27;20049;-79
2021/12/24 01:40:20;;;;;;;88.35;23.30;;;7.10;99.90;;;;;;5126177;27;20046;-81
2021/12/24 01:42:47;;;;;;;91.70;23.63;;;7.10;99.90;;;;;;5097682;27;20046;-81
2021/12/24 01:45:18;;;;;;;97.63;23.23;;;7.10;99.90;;;;;;5095919;27;20069;-80
2021/12/24 01:47:44;;;;;;;106.30;24.25;;;7.10;99.90;;;;;;5111712;27;20121;-80
2021/12/24 01:50:11;;;;;;;95.07;21.88;;;7.10;99.90;;;;;;5127780;27;20051;-80
2021/12/24 01:52:38;;;;;;;115.13;24.13;;;7.10;99.90;;;;;;5110828;27;20043;-81
2021/12/24 01:55:05;;;;;;;116.45;22.73;;;7.10;99.90;;;;;;5110302;27;20050;-80
2021/12/24 01:57:32;;;;;;;114.45;22.05;;;7.10;99.90;;;;;;5112124;27;20099;-80
2021/12/24 01:59:59;;;;;;;119.78;23.55;;;7.10;99.90;;;;;;5124126;27;20054;-80
2021/12/24 02:02:25;;;;;;;139.85;22.90;;;7.10;99.90;;;;;;5110030;27;20050;-80
2021/12/24 02:04:50;;;;;;;139.00;23.33;;;7.10;99.90;;;;;;5095227;27;20050;-81
2021/12/24 02:07:16;;;;;;;139.20;24.52;;;7.00;99.90;;;;;;5110383;27;20459;-79
2021/12/24 02:09:42;;;;;;;117.90;21.38;;;7.10;99.90;;;;;;5110600;27;20548;-80
2021/12/24 02:12:09;;;;;;;111.68;21.02;;;7.10;99.90;;;;;;5109954;27;20056;-79
2021/12/24 02:14:38;;;;;;;153.90;24.92;;;7.10;99.90;;;;;;5117961;27;20562;-79
2021/12/24 02:30:35;;;;;;;119.70;20.70;;;7.10;99.90;;;;;;5125809;27;20271;-80
2021/12/24 02:33:03;;;;;;;127.45;22.50;;;7.10;99.90;;;;;;5109114;27;20047;-79
2021/12/24 02:35:30;;;;;;;134.98;23.38;;;7.20;99.90;;;;;;5115421;27;20089;-80
2021/12/24 02:37:56;;;;;;;110.10;21.88;;;7.20;99.90;;;;;;5111903;27;20081;-80
2021/12/24 02:40:22;;;;;;;144.02;24.35;;;7.10;99.90;;;;;;5109321;27;20081;-80
2021/12/24 02:42:52;;;;;;;119.90;22.38;;;7.20;99.90;;;;;;5125748;27;20464;-80
2021/12/24 02:45:18;;;;;;;97.10;21.00;;;7.20;99.90;;;;;;5126957;27;20070;-80
2021/12/24 02:56:01;;;;;;;90.10;24.17;;;7.30;99.90;;;;;;5109319;27;20043;-80
2021/12/24 02:58:27;;;;;;;90.97;23.73;;;7.30;99.90;;;;;;5125435;27;20074;-80
2021/12/24 03:00:53;;;;;;;82.38;23.13;;;7.90;99.90;;;;;;5109551;27;20082;-80
2021/12/24 03:03:18;;;;;;;82.82;24.98;;;7.30;99.90;;;;;;5123157;27;20103;-79
2021/12/24 03:05:44;;;;;;;91.78;27.10;;;7.30;99.90;;;;;;5076888;27;20043;-80
2021/12/24 03:08:10;;;;;;;89.32;26.25;;;7.30;99.90;;;;;;5108891;27;20479;-80
2021/12/24 03:10:36;;;;;;;86.85;27.67;;;7.30;99.90;;;;;;5111037;27;20038;-79
2021/12/24 03:13:03;;;;;;;95.45;28.50;;;7.30;99.90;;;;;;5105596;27;20117;-80
2021/12/24 03:15:29;;;;;;;83.00;25.98;;;7.30;99.90;;;;;;5110659;27;20046;-78
2021/12/24 03:17:58;;;;;;;74.68;25.23;;;7.30;99.90;;;;;;5114925;27;20387;-80
2021/12/24 03:20:27;;;;;;;71.72;25.00;;;7.30;99.90;;;;;;5113634;27;20046;-79
2021/12/24 03:25:31;;;;;;;73.63;23.58;;;7.40;99.90;;;;;;5114005;27;20053;-79
2021/12/24 03:27:57;;;;;;;66.20;21.88;;;7.30;99.90;;;;;;5112828;27;20051;-80
2021/12/24 03:30:24;;;;;;;58.53;22.80;;;7.30;99.90;;;;;;5114291;27;20493;-80
2021/12/24 03:32:50;;;;;;;58.53;20.42;;;7.40;99.90;;;;;;5111095;27;20396;-80
2021/12/24 03:35:15;;;;;;;67.10;21.38;;;7.30;99.90;;;;;;5111322;27;20039;-81
2021/12/24 03:37:41;;;;;;;70.20;22.23;;;7.30;99.90;;;;;;5129982;27;20495;-79
2021/12/24 03:40:07;;;;;;;63.55;20.92;;;7.70;99.90;;;;;;5098017;27;20038;-80
2021/12/24 03:42:37;;;;;;;54.58;19.75;;;7.30;99.90;;;;;;5092400;27;20042;-80
2021/12/24 03:45:19;;;;;;;72.75;21.13;;;7.30;99.90;;;;;;5098123;27;20735;-79
2021/12/24 03:47:52;;;;;;;66.20;19.00;;;7.30;99.90;;;;;;5128647;27;20429;-80
2021/12/24 03:50:18;;;;;;;59.25;19.98;;;7.50;99.90;;;;;;5106442;27;20034;-79
2021/12/24 03:55:15;;;;;;;57.75;19.23;;;7.30;99.90;;;;;;5110413;27;20051;-80
2021/12/24 03:57:42;;;;;;;67.90;20.23;;;7.30;99.90;;;;;;5104279;27;20481;-80
2021/12/24 04:00:25;;;;;;;65.07;21.02;;;7.40;99.90;;;;;;5127722;27;20223;-80
2021/12/24 04:02:50;;;;;;;69.25;21.15;;;7.40;99.90;;;;;;5113881;27;20134;-80
2021/12/24 04:05:16;;;;;;;68.35;21.88;;;7.40;99.90;;;;;;5088916;27;20081;-79
2021/12/24 04:07:42;;;;;;;60.25;22.38;;;7.50;99.90;;;;;;5113887;27;20063;-80
2021/12/24 04:12:40;;;;;;;66.25;21.42;;;7.50;99.90;;;;;;5112830;27;20046;-80
2021/12/24 04:15:09;;;;;;;52.90;21.38;;;7.50;99.90;;;;;;5113773;27;20042;-80
2021/12/24 04:17:38;;;;;;;57.10;19.67;;;7.50;99.90;;;;;;5127719;27;20062;-79
2021/12/24 04:25:33;;;;;;;49.15;16.80;;;7.40;99.90;;;;;;5115148;27;20054;-80
2021/12/24 04:28:00;;;;;;;50.15;17.05;;;7.40;99.90;;;;;;5128208;27;20407;-79
2021/12/24 04:30:32;;;;;;;43.70;15.80;;;7.40;99.90;;;;;;5096663;27;20055;-80
2021/12/24 04:33:12;;;;;;;50.10;16.45;;;7.40;99.90;;;;;;5128039;27;20066;-79
2021/12/24 04:35:43;;;;;;;40.60;14.57;;;7.40;99.90;;;;;;5094756;27;20099;-80
2021/12/24 04:51:49;;;;;;;39.92;11.63;;;7.50;99.90;;;;;;5113595;27;20046;-81
2021/12/24 05:05:11;;;;;;;43.03;10.57;;;7.50;99.90;;;;;;5125134;27;20574;-80
2021/12/24 05:10:06;;;;;;;39.90;10.50;;;7.50;99.90;;;;;;5126201;27;20047;-81
2021/12/24 05:12:34;;;;;;;34.75;10.85;;;7.50;99.90;;;;;;5110162;27;20479;-80
2021/12/24 05:15:04;;;;;;;36.15;9.60;;;8.00;99.90;;;;;;5112806;27;20047;-80
2021/12/24 05:18:12;;;;;;;30.98;9.25;;;7.50;99.90;;;;;;5096117;27;20094;-80
2021/12/24 05:23:06;;;;;;;34.40;10.00;;;7.60;99.90;;;;;;5124337;27;20503;-81
2021/12/24 05:25:51;;;;;;;38.20;9.43;;;7.60;99.90;;;;;;5126938;27;20049;-81
2021/12/24 05:28:18;;;;;;;30.63;9.93;;;7.50;99.90;;;;;;5129594;27;20046;-80
2021/12/24 05:30:45;;;;;;;30.15;8.75;;;7.60;99.90;;;;;;5111243;27;20053;-80
2021/12/24 05:33:15;;;;;;;31.73;9.30;;;7.60;99.90;;;;;;5108150;27;20513;-80
2021/12/24 05:35:43;;;;;;;37.95;9.02;;;7.50;99.90;;;;;;5111444;27;20095;-80
2021/12/24 05:38:10;;;;;;;32.70;8.65;;;7.70;99.90;;;;;;5108811;27;20479;-81
2021/12/24 05:40:36;;;;;;;36.30;8.93;;;7.50;99.90;;;;;;5127618;27;20046;-80
2021/12/24 05:43:02;;;;;;;32.35;8.75;;;7.50;99.90;;;;;;5106201;27;20426;-81
2021/12/24 05:45:28;;;;;;;31.55;7.55;;;7.50;99.90;;;;;;5110111;27;20053;-80
2021/12/24 05:47:54;;;;;;;36.13;8.85;;;7.50;99.90;;;;;;5095524;27;20050;-80
2021/12/24 05:50:20;;;;;;;34.50;8.25;;;7.50;99.90;;;;;;5078566;27;20042;-80
2021/12/24 05:52:46;;;;;;;26.10;7.55;;;7.40;99.90;;;;;;5077923;27;20049;-81
2021/12/24 05:55:12;;;;;;;30.50;7.75;;;7.40;99.90;;;;;;5109992;27;20058;-81
2021/12/24 05:57:37;;;;;;;27.92;7.60;;;7.40;99.90;;;;;;5078103;27;20073;-80
2021/12/24 06:00:05;;;;;;;23.83;7.57;;;7.40;99.90;;;;;;5096562;27;20505;-81
2021/12/24 06:02:33;;;;;;;27.10;7.95;;;7.40;99.90;;;;;;5106269;27;20050;-80
2021/12/24 06:04:58;;;;;;;22.40;7.30;;;7.50;99.90;;;;;;5109864;27;20090;-81
2021/12/24 06:07:24;;;;;;;25.60;7.43;;;7.50;99.90;;;;;;5095490;27;20054;-80
2021/12/24 06:09:50;;;;;;;27.20;7.80;;;7.50;99.90;;;;;;5108795;27;20082;-80
2021/12/24 06:12:16;;;;;;;25.80;7.15;;;7.50;99.90;;;;;;5109665;27;20466;-81
2021/12/24 06:14:44;;;;;;;28.33;7.38;;;;;;;;;;5109058;27;20057;-81
2021/12/24 06:17:15;;;;;;;27.05;8.65;;;7.50;99.90;;;;;;5108579;27;20042;-81
2021/12/24 06:19:42;;;;;;;25.85;6.95;;;7.50;99.90;;;;;;5106845;27;20046;-80
2021/12/24 06:22:08;;;;;;;24.88;7.00;;;7.50;99.90;;;;;;5108971;27;20066;-81
2021/12/24 06:24:34;;;;;;;31.52;7.50;;;7.50;99.90;;;;;;5095231;27;20044;-80
2021/12/24 06:27:00;;;;;;;35.67;6.68;;;7.50;99.90;;;;;;5093490;27;20042;-80
2021/12/24 06:29:25;;;;;;;24.23;6.65;;;8.10;99.90;;;;;;5092919;27;20049;-80
2021/12/24 06:31:52;;;;;;;19.23;5.95;;;7.50;99.90;;;;;;5107606;27;20046;-80
2021/12/24 06:34:19;;;;;;;29.73;6.38;;;7.50;99.90;;;;;;5104969;27;20050;-80
2021/12/24 06:36:48;;;;;;;28.73;6.15;;;7.50;99.90;;;;;;5121298;27;20077;-80
2021/12/24 06:39:15;;;;;;;26.60;6.07;;;7.40;99.90;;;;;;5126373;27;20126;-81
2021/12/24 06:41:42;;;;;;;27.35;5.85;;;6.40;99.90;;;;;;5124899;27;20047;-80
2021/12/24 06:44:11;;;;;;;22.83;5.35;;;7.50;99.90;;;;;;5125580;27;20054;-80
2021/12/24 06:46:38;;;;;;;21.55;5.00;;;7.50;99.90;;;;;;5109335;27;20039;-81
2021/12/24 06:49:04;;;;;;;20.60;5.43;;;7.50;99.90;;;;;;5143123;27;20049;-80
2021/12/24 06:51:30;;;;;;;27.00;5.25;;;7.50;99.90;;;;;;5108472;27;20550;-80
2021/12/24 06:53:55;;;;;;;23.73;5.60;;;7.50;99.90;;;;;;5108912;27;20062;-80
2021/12/24 06:56:22;;;;;;;25.60;5.50;;;7.50;99.90;;;;;;5093130;27;20111;-80
2021/12/24 06:58:48;;;;;;;23.02;5.68;;;7.50;99.90;;;;;;5110705;27;20061;-79
2021/12/24 07:01:14;;;;;;;22.77;5.57;;;7.50;99.90;;;;;;5107610;27;20043;-81
2021/12/24 07:03:39;;;;;;;30.02;5.32;;;7.50;99.90;;;;;;5108109;27;20046;-80
2021/12/24 07:06:06;;;;;;;29.48;6.22;;;7.50;99.90;;;;;;5106273;27;20039;-80
2021/12/24 07:08:32;;;;;;;29.23;5.93;;;7.60;99.90;;;;;;5123804;27;20064;-80
2021/12/24 07:10:58;;;;;;;19.92;4.82;;;7.60;99.90;;;;;;5110009;27;20075;-80
2021/12/24 07:13:25;;;;;;;25.23;5.03;;;7.50;99.90;;;;;;5109683;27;20043;-77
2021/12/24 07:15:51;;;;;;;24.25;5.45;;;7.60;99.90;;;;;;5109703;27;20055;-80
2021/12/24 07:18:17;;;;;;;23.50;5.05;;;7.60;99.90;;;;;;5108544;27;20045;-79
2021/12/24 07:20:43;;;;;;;18.92;5.00;;;7.50;99.90;;;;;;5117833;27;20169;-79
2021/12/24 07:23:08;;;;;;;26.38;5.25;;;7.50;99.90;;;;;;5122010;27;20111;-79
2021/12/24 07:25:34;;;;;;;27.35;4.70;;;7.90;99.90;;;;;;5092764;27;20039;-80
2021/12/24 07:28:03;;;;;;;27.75;5.60;;;7.50;99.90;;;;;;5077508;27;20125;-82
2021/12/24 07:30:30;;;;;;;23.88;5.20;;;7.50;99.90;;;;;;5106967;27;20070;-77
2021/12/24 07:32:56;;;;;;;26.33;5.35;;;7.50;99.90;;;;;;5104779;27;20061;-80
2021/12/24 07:35:22;;;;;;;24.50;5.20;;;7.50;99.90;;;;;;5108544;27;20047;-79
2021/12/24 07:37:48;;;;;;;21.85;4.55;;;7.50;99.90;;;;;;5120299;27;20145;-78
2021/12/24 07:40:16;;;;;;;25.55;5.80;;;7.50;99.90;;;;;;5116890;27;20042;-78
2021/12/24 07:42:42;;;;;;;30.25;5.50;;;7.40;99.90;;;;;;5076353;27;20049;-79
2021/12/24 07:45:09;;;;;;;26.90;5.57;;;7.40;99.90;;;;;;5093453;27;20049;-77
2021/12/24 07:47:40;;;;;;;29.83;4.95;;;7.40;99.90;;;;;;5108765;27;20043;-79
2021/12/24 07:52:43;;;;;;;23.15;5.63;;;7.40;99.90;;;;;;5122133;27;20039;-78
2021/12/24 07:55:10;;;;;;;25.23;5.80;;;7.40;99.90;;;;;;5122303;27;20121;-79
2021/12/24 07:57:39;;;;;;;24.90;6.55;;;7.40;99.90;;;;;;5118184;27;20057;-79
2021/12/24 08:00:07;;;;;;;25.30;6.25;;;7.40;99.90;;;;;;5126409;27;20043;-80
2021/12/24 08:02:33;;;;;;;19.45;5.53;;;7.40;99.90;;;;;;5106761;27;20035;-80
2021/12/24 08:04:59;;;;;;;34.17;5.85;;;7.40;99.90;;;;;;5107096;27;20046;-79
2021/12/24 08:07:24;;;;;;;35.40;6.50;;;7.40;99.90;;;;;;5127231;27;20045;-78
2021/12/24 08:09:51;;;;;;;29.58;5.80;;;7.40;99.90;;;;;;5109283;27;20050;-80
2021/12/24 08:12:18;;;;;;;19.20;5.45;;;7.40;99.90;;;;;;5111772;27;20400;-79
2021/12/24 08:14:45;;;;;;;28.73;5.82;;;7.30;99.90;;;;;;5127670;27;20046;-79
2021/12/24 08:17:11;;;;;;;32.10;6.80;;;7.30;99.90;;;;;;5116186;27;20395;-80
2021/12/24 08:19:37;;;;;;;29.10;6.25;;;7.30;99.90;;;;;;5116547;27;20042;-80
2021/12/24 08:22:04;;;;;;;29.63;6.25;;;7.30;99.90;;;;;;5131459;27;20129;-79
2021/12/24 08:24:33;;;;;;;26.35;6.10;;;7.30;99.90;;;;;;5099175;27;20078;-80
2021/12/24 08:26:59;;;;;;;25.33;5.82;;;7.30;99.90;;;;;;5133263;27;20042;-79
2021/12/24 08:29:24;;;;;;;31.33;6.45;;;7.30;99.90;;;;;;5131092;27;20043;-79
2021/12/24 08:31:52;;;;;;;26.02;6.70;;;7.30;99.90;;;;;;5126109;27;20049;-79
2021/12/24 08:34:19;;;;;;;29.63;6.35;;;7.30;99.90;;;;;;5131463;27;20057;-80
2021/12/24 08:36:46;;;;;;;36.67;6.20;;;7.30;99.90;;;;;;5132114;27;20121;-79
2021/12/24 08:39:12;;;;;;;32.65;6.53;;;7.30;99.90;;;;;;5125620;27;20526;-79
2021/12/24 08:41:37;;;;;;;27.23;6.80;;;7.40;99.90;;;;;;5113387;27;20042;-80
2021/12/24 08:44:04;;;;;;;29.92;6.65;;;7.30;99.90;;;;;;5110589;27;20046;-80
2021/12/24 08:46:30;;;;;;;34.97;7.80;;;7.30;99.90;;;;;;5107683;27;20073;-79
2021/12/24 08:48:56;;;;;;;34.50;7.00;;;7.40;99.90;;;;;;5126786;27;20047;-79
2021/12/24 08:51:22;;;;;;;25.77;7.03;;;7.40;99.90;;;;;;5089307;27;20518;-80
2021/12/24 08:53:48;;;;;;;33.72;7.10;;;7.30;99.90;;;;;;5112954;27;20070;-79
2021/12/24 08:56:13;;;;;;;33.90;6.97;;;7.40;99.90;;;;;;5094033;27;20054;-80
2021/12/24 08:58:40;;;;;;;33.97;7.70;;;7.40;99.90;;;;;;5095572;27;20573;-81
2021/12/24 09:01:06;;;;;;;26.92;6.88;;;8.50;99.90;;;;;;5125616;27;20039;-81
2021/12/24 09:03:32;;;;;;;31.38;7.88;;;7.50;99.90;;;;;;5128652;27;20053;-81
2021/12/24 09:05:58;;;;;;;31.55;7.75;;;7.50;99.90;;;;;;5090708;27;20049;-81
2021/12/24 09:08:24;;;;;;;24.45;7.32;;;7.50;99.90;;;;;;5113855;27;20042;-82
2021/12/24 09:10:50;;;;;;;26.48;7.05;;;7.40;99.90;;;;;;5115265;27;20054;-81
2021/12/24 09:13:16;;;;;;;34.22;7.65;;;7.60;99.90;;;;;;5107854;27;20046;-83
2021/12/24 09:15:43;;;;;;;19.40;5.53;;;7.50;99.90;;;;;;5095372;27;20126;-84
2021/12/24 09:18:09;;;;;;;15.20;4.32;;;7.60;99.90;;;;;;5098497;27;20043;-82
2021/12/24 09:20:40;;;;;;;12.45;4.18;;;6.70;99.90;;;;;;5096865;27;20103;-84
2021/12/24 09:23:07;;;;;;;14.00;3.05;;;7.40;99.90;;;;;;5127788;27;20042;-83
2021/12/24 09:25:33;;;;;;;7.75;2.50;;;7.40;99.90;;;;;;5112130;27;20047;-84
2021/12/24 09:28:00;;;;;;;12.05;2.83;;;7.40;99.90;;;;;;5126949;27;20050;-84
2021/12/24 09:30:27;;;;;;;10.30;2.10;;;7.40;99.90;;;;;;5095330;27;20126;-85
2021/12/24 09:32:53;;;;;;;8.07;2.00;;;7.30;99.90;;;;;;5113669;27;20092;-79
2021/12/24 09:35:21;;;;;;;7.55;2.00;;;7.40;99.90;;;;;;5094617;27;20081;-83
2021/12/24 09:37:47;;;;;;;11.25;2.33;;;6.70;99.90;;;;;;5124883;27;20050;-85
2021/12/24 09:40:27;;;;;;;;;;;;;;;;;;;;;
2021/12/24 09:42:53;;;;;;;7.30;1.90;;;7.30;99.90;;;;;;5127499;27;20054;-82
2021/12/24 09:45:19;;;;;;;5.78;1.60;;;7.30;99.90;;;;;;5123008;27;20321;-81
2021/12/24 09:47:53;;;;;;;11.77;2.08;;;6.30;99.90;;;;;;5090268;27;20094;-84
2021/12/24 09:50:22;;;;;;;8.75;2.63;;;7.30;99.90;;;;;;5127093;27;20046;-82
2021/12/24 09:52:54;;;;;;;6.22;2.28;;;7.20;99.90;;;;;;5108413;27;20038;-85
2021/12/24 09:55:24;;;;;;;3.83;1.30;;;7.40;99.90;;;;;;5124147;27;20190;-85
2021/12/24 09:57:50;;;;;;;2.40;1.20;;;7.20;99.90;;;;;;5111089;27;20558;-84
2021/12/24 10:00:19;;;;;;;3.47;1.02;;;7.20;99.90;;;;;;5111260;27;20043;-85
2021/12/24 10:02:52;;;;;;;1.67;0.88;;;7.10;99.90;;;;;;5106871;27;20039;-86
2021/12/24 10:05:32;;;;;;;1.20;0.70;;;7.00;99.90;;;;;;5106426;27;20094;-85
2021/12/24 10:08:01;;;;;;;3.05;0.80;;;6.90;99.90;;;;;;5122109;27;20099;-85
2021/12/24 10:10:30;;;;;;;2.00;0.70;;;6.90;99.90;;;;;;5118965;27;20499;-85
2021/12/24 10:12:59;;;;;;;2.65;0.90;;;6.90;99.90;;;;;;5110652;27;20047;-85
2021/12/24 10:15:25;;;;;;;2.65;0.82;;;6.80;99.90;;;;;;5109516;27;20510;-86
2021/12/24 10:17:53;;;;;;;1.67;0.95;;;6.90;99.90;;;;;;5123892;27;20046;-86
2021/12/24 10:20:20;;;;;;;3.35;0.90;;;6.80;99.90;;;;;;5111650;27;20130;-86
2021/12/24 10:22:51;;;;;;;4.05;1.15;;;6.80;99.90;;;;;;5107884;27;20039;-86
2021/12/24 10:25:27;;;;;;;3.35;1.15;;;6.90;99.90;;;;;;5109405;27;20053;-85
2021/12/24 10:28:08;;;;;;;3.47;1.60;;;6.80;99.90;;;;;;5125831;27;20050;-85
2021/12/24 10:30:34;;;;;;;4.15;1.30;;;6.80;99.90;;;;;;5094584;27;20129;-81
2021/12/24 10:33:10;;;;;;;2.55;1.17;;;6.70;99.90;;;;;;5111690;27;20042;-82
2021/12/24 10:35:36;;;;;;;;;;;6.80;99.90;;;;;;5112013;27;20050;-81
2021/12/24 10:38:17;;;;;;;3.37;1.53;;;6.80;99.90;;;;;;5114286;27;19929;-78
2021/12/24 10:40:49;;;;;;;4.68;1.52;;;6.80;99.90;;;;;;5129425;27;20283;-81
2021/12/24 10:43:33;;;;;;;4.32;2.00;;;6.80;99.90;;;;;;5122981;27;20050;-80
2021/12/24 10:46:14;;;;;;;3.55;1.40;;;6.70;99.90;;;;;;5130750;27;20043;-80
2021/12/24 10:48:49;;;;;;;4.78;1.40;;;6.70;99.90;;;;;;5123344;27;20418;-81
2021/12/24 10:51:42;;;;;;;3.80;1.60;;;6.70;99.90;;;;;;5127753;27;20432;-80
2021/12/24 10:54:07;;;;;;;3.53;1.60;;;6.70;99.90;;;;;;5115104;27;20058;-80
2021/12/24 10:56:33;;;;;;;3.25;1.58;;;6.80;99.90;;;;;;5091898;27;20132;-83
2021/12/24 10:58:58;;;;;;;4.68;1.52;;;6.70;99.90;;;;;;5109416;27;20039;-83
2021/12/24 11:01:24;;;;;;;2.40;1.60;;;5.60;99.90;;;;;;5125127;27;20130;-83
2021/12/24 11:03:50;;;;;;;7.80;1.50;;;6.60;99.90;;;;;;5123090;27;20545;-83
2021/12/24 11:06:30;;;;;;;2.55;1.48;;;6.70;99.90;;;;;;5125582;27;20093;-82
2021/12/24 11:08:58;;;;;;;4.68;1.63;;;6.70;99.90;;;;;;5107356;27;20049;-80
2021/12/24 11:11:38;;;;;;;3.97;1.50;;;6.80;99.90;;;;;;5127018;27;20038;-80
2021/12/24 11:14:04;;;;;;;5.03;1.60;;;6.70;99.90;;;;;;5107981;27;20039;-80
2021/12/24 11:16:31;;;;;;;2.83;1.73;;;6.70;99.90;;;;;;5108519;27;20066;-80
2021/12/24 11:19:00;;;;;;;4.70;1.83;;;6.70;99.90;;;;;;5111729;27;20121;-79
2021/12/24 11:21:28;;;;;;;3.13;1.85;;;7.30;99.90;;;;;;5123604;27;20082;-80
2021/12/24 11:23:55;;;;;;;4.47;1.70;;;7.20;99.90;;;;;;5107658;27;20121;-79
2021/12/24 11:26:27;;;;;;;4.40;1.90;;;6.80;99.90;;;;;;5118615;27;20521;-80
2021/12/24 11:28:54;;;;;;;3.58;1.90;;;6.80;99.90;;;;;;5107294;27;20321;-79
2021/12/24 11:31:26;;;;;;;4.60;1.90;;;6.80;99.90;;;;;;5110827;27;20082;-79
2021/12/24 11:33:52;;;;;;;4.20;1.65;;;6.80;99.90;;;;;;5104916;27;20086;-80
2021/12/24 11:36:22;;;;;;;3.45;1.67;;;6.90;99.90;;;;;;5116399;27;20130;-80
2021/12/24 11:38:56;;;;;;;5.45;2.00;;;6.90;99.90;;;;;;5114309;27;20077;-80
2021/12/24 11:41:26;;;;;;;3.67;2.03;;;6.90;99.90;;;;;;5126713;27;20061;-81
2021/12/24 11:43:54;;;;;;;4.03;2.20;;;6.90;99.90;;;;;;5113235;27;20043;-81
2021/12/24 11:46:23;;;;;;;3.15;2.15;;;6.90;99.90;;;;;;5112955;27;20084;-81
2021/12/24 11:48:51;;;;;;;2.85;1.88;;;7.70;99.90;;;;;;5110637;27;20577;-80
2021/12/24 11:51:20;;;;;;;4.13;1.90;;;6.90;99.90;;;;;;5112867;27;20057;-81
2021/12/24 11:53:51;;;;;;;5.20;2.35;;;6.90;99.90;;;;;;5109289;27;20042;-81
2021/12/24 11:56:20;;;;;;;7.78;2.70;;;6.90;99.90;;;;;;5096820;27;20479;-80
2021/12/24 11:58:53;;;;;;;5.35;2.50;;;6.80;99.90;;;;;;5129850;27;20038;-81
2021/12/24 12:01:20;;;;;;;4.00;2.22;;;6.80;99.90;;;;;;5109288;27;20099;-81
2021/12/24 12:03:55;;;;;;;4.68;2.10;;;6.80;99.90;;;;;;5095618;27;20126;-81
2021/12/24 12:06:24;;;;;;;3.70;2.03;;;6.80;99.90;;;;;;5126563;27;20047;-81
2021/12/24 12:08:56;;;;;;;6.30;2.50;;;6.80;99.90;;;;;;5111606;27;20798;-81
2021/12/24 12:11:32;;;;;;;6.78;2.30;;;6.70;99.90;;;;;;5108789;27;20495;-80
2021/12/24 12:14:10;;;;;;;4.07;2.30;;;6.80;99.90;;;;;;5125717;27;20114;-80
2021/12/24 12:16:39;;;;;;;4.00;2.28;;;6.70;99.90;;;;;;5115611;27;20078;-80
2021/12/24 12:22:11;;;;;;;4.18;2.08;;;6.80;99.90;;;;;;5131983;27;20149;-80
2021/12/24 12:25:02;;;;;;;7.78;2.90;;;6.90;99.90;;;;;;5125631;27;20488;-81
2021/12/24 12:27:32;;;;;;;6.05;2.38;;;6.90;99.90;;;;;;5105292;27;20059;-81
2021/12/24 12:30:19;;;;;;;4.53;2.10;;;7.00;99.90;;;;;;5131712;27;20725;-81
2021/12/24 12:32:45;;;;;;;3.22;1.80;;;7.70;99.90;;;;;;5108114;27;20075;-81
2021/12/24 12:35:13;;;;;;;4.13;2.13;;;7.00;99.90;;;;;;5114012;27;20077;-81
2021/12/24 12:37:53;;;;;;;4.30;1.95;;;7.00;99.90;;;;;;5132841;27;20042;-81
2021/12/24 12:40:19;;;;;;;2.88;1.90;;;8.10;99.90;;;;;;5116001;27;20124;-79
2021/12/24 12:42:56;;;;;;;4.40;1.95;;;7.10;99.90;;;;;;5130737;27;20070;-80
2021/12/24 12:45:43;;;;;;;5.25;2.00;;;7.10;99.90;;;;;;5123217;27;20042;-80
2021/12/24 12:48:10;;;;;;;;;;;7.10;99.90;;;;;;5110777;27;20039;-80
2021/12/24 12:50:49;;;;;;;3.35;1.50;;;7.00;99.90;;;;;;5114951;27;19919;-80
2021/12/24 12:53:36;;;;;;;4.47;1.77;;;7.00;99.90;;;;;;5127894;27;20043;-80
2021/12/24 12:56:22;;;;;;;4.22;1.77;;;7.00;99.90;;;;;;5131913;27;20814;-80
2021/12/24 12:58:56;;;;;;;5.57;2.60;;;7.00;99.90;;;;;;5124468;27;20047;-79
2021/12/24 13:01:22;;;;;;;8.27;2.97;;;7.00;99.90;;;;;;5120905;27;20043;-80
2021/12/24 13:03:57;;;;;;;4.50;2.33;;;7.00;99.90;;;;;;5111025;27;20050;-80
2021/12/24 13:06:47;;;;;;;5.03;2.47;;;7.00;99.90;;;;;;5130224;27;20073;-81
2021/12/24 13:09:16;;;;;;;7.18;2.40;;;7.10;99.90;;;;;;5131827;27;20068;-81
2021/12/24 13:11:46;;;;;;;4.70;2.00;;;7.10;99.90;;;;;;5108564;27;20039;-80
2021/12/24 13:14:14;;;;;;;3.63;1.85;;;7.00;99.90;;;;;;5105178;27;20130;-80
2021/12/24 13:16:48;;;;;;;3.15;1.90;;;7.00;99.90;;;;;;5108437;27;20066;-80
2021/12/24 13:24:58;;;;;;;5.15;2.22;;;7.00;99.90;;;;;;5123916;27;20054;-81
2021/12/24 13:27:28;;;;;;;5.15;2.30;;;7.00;99.90;;;;;;5110010;27;20123;-81
2021/12/24 13:30:26;;;;;;;5.00;2.35;;;7.00;99.90;;;;;;5113015;27;20403;-80
2021/12/24 13:33:04;;;;;;;4.65;2.38;;;7.00;99.90;;;;;;5129366;27;20066;-81
2021/12/24 13:35:42;;;;;;;7.57;3.20;;;6.90;99.90;;;;;;5131265;27;20070;-81
2021/12/24 13:38:24;;;;;;;4.90;2.80;;;7.90;99.90;;;;;;5106580;27;20047;-81
2021/12/24 13:40:50;;;;;;;5.65;2.67;;;6.90;99.90;;;;;;5132260;27;20046;-80
2021/12/24 13:43:18;;;;;;;4.18;2.80;;;6.80;99.90;;;;;;5130522;27;20050;-81
2021/12/24 13:45:48;;;;;;;5.28;2.47;;;6.80;99.90;;;;;;5098512;27;20052;-82
2021/12/24 13:48:25;;;;;;;6.75;2.55;;;6.80;99.90;;;;;;5112645;27;20058;-81
2021/12/24 13:56:46;;;;;;;3.25;1.95;;;6.70;99.90;;;;;;5129493;27;20126;-81
2021/12/24 13:59:15;;;;;;;5.07;1.95;;;6.70;99.90;;;;;;5123200;27;20041;-81
2021/12/24 14:01:42;;;;;;;4.55;2.25;;;6.70;99.90;;;;;;5115113;27;20047;-81
2021/12/24 14:04:08;;;;;;;6.03;2.10;;;6.70;99.90;;;;;;5095133;27;20074;-81
2021/12/24 14:06:45;;;;;;;5.90;2.17;;;6.70;99.90;;;;;;5097008;27;20046;-81
2021/12/24 14:09:23;;;;;;;4.05;2.08;;;6.70;99.90;;;;;;5113924;27;20065;-81
2021/12/24 14:11:52;;;;;;;6.78;2.70;;;6.70;99.90;;;;;;5131076;27;20150;-81
2021/12/24 14:14:25;;;;;;;6.10;2.22;;;7.10;99.90;;;;;;5112405;27;20130;-81
2021/12/24 14:22:22;;;;;;;7.60;2.53;;;6.70;99.90;;;;;;5115452;27;20078;-80
2021/12/24 14:25:10;;;;;;;8.18;2.70;;;6.70;99.90;;;;;;5114027;27;20752;-81
2021/12/24 14:27:45;;;;;;;3.55;2.42;;;6.70;99.90;;;;;;5132024;27;20137;-80
2021/12/24 14:30:15;;;;;;;4.28;1.50;;;6.60;99.90;;;;;;5130401;27;20238;-77
2021/12/24 14:32:45;;;;;;;3.90;1.90;;;6.60;99.90;;;;;;5130847;27;20094;-81
2021/12/24 14:35:23;;;;;;;5.68;1.60;;;6.60;99.90;;;;;;5112093;27;20050;-80
2021/12/24 14:37:58;;;;;;;5.85;1.85;;;6.60;99.90;;;;;;5114481;27;20114;-81
2021/12/24 14:40:26;;;;;;;5.72;1.70;;;6.60;99.90;;;;;;5122847;27;20051;-80
2021/12/24 14:42:53;;;;;;;3.38;1.00;;;7.30;99.90;;;;;;5130339;27;20093;-80
2021/12/24 14:45:33;;;;;;;1.95;0.75;;;6.60;99.90;;;;;;5113153;27;20495;-80
2021/12/24 14:48:21;;;;;;;3.55;0.93;;;6.50;99.90;;;;;;5129272;27;20053;-80
2021/12/24 14:50:57;;;;;;;2.25;0.80;;;6.50;99.90;;;;;;5111880;27;20558;-80
2021/12/24 14:53:34;;;;;;;1.92;0.82;;;6.40;99.90;;;;;;5129622;27;20042;-81
2021/12/24 14:56:10;;;;;;;3.58;0.90;;;7.00;99.90;;;;;;5130224;27;20171;-80
2021/12/24 14:58:40;;;;;;;2.53;1.20;;;6.30;99.90;;;;;;5130805;27;20042;-80